sensor_id;sensor_type;location;lat;lon;timestamp;temperature;humidity
9939;DHT22;5008;50.656;7.188;2023-06-14T04:01:23;15.30;99.90
9939;DHT22;5008;50.656;7.188;2023-06-14T04:03:55;15.30;99.90
9939;DHT22;5008;50.656;7.188;2023-06-14T04:06:27;15.40;99.90
9939;DHT22;5008;50.656;7.188;2023-06-14T04:09:13;15.40;99.90
9939;DHT22;5008;50.656;7.188;2023-06-14T04:11:40;15.40;99.90
9939;DHT22;5008;50.656;7.188;2023-06-14T04:14:07;15.40;99.90
9939;DHT22;5008;50.656;7.188;2023-06-14T04:16:35;15.40;99.90
9939;DHT22;5008;50.656;7.188;2023-06-14T04:19:02;15.40;99.90
9939;DHT22;5008;50.656;7.188;2023-06-14T04:21:29;15.40;99.90
9939;DHT22;5008;50.656;7.188;2023-06-14T04:23:56;15.40;99.90
9939;DHT22;5008;50.656;7.188;2023-06-14T04:26:23;15.50;99.90
9939;DHT22;5008;50.656;7.188;2023-06-14T04:28:55;15.50;99.90
9939;DHT22;5008;50.656;7.188;2023-06-14T04:31:22;15.60;99.90
9939;DHT22;5008;50.656;7.188;2023-06-14T04:33:52;15.60;99.90
9939;DHT22;5008;50.656;7.188;2023-06-14T04:36:19;15.60;99.90
9939;DHT22;5008;50.656;7.188;2023-06-14T04:38:46;15.80;99.90
9939;DHT22;5008;50.656;7.188;2023-06-14T04:41:14;16.00;99.90
9939;DHT22;5008;50.656;7.188;2023-06-14T04:43:42;15.90;99.90
9939;DHT22;5008;50.656;7.188;2023-06-14T04:46:22;15.80;99.90
9939;DHT22;5008;50.656;7.188;2023-06-14T04:48:49;15.90;99.90
9939;DHT22;5008;50.656;7.188;2023-06-14T04:51:17;16.00;99.90
9939;DHT22;5008;50.656;7.188;2023-06-14T04:53:46;16.20;99.90
9939;DHT22;5008;50.656;7.188;2023-06-14T04:56:15;16.30;99.90
9939;DHT22;5008;50.656;7.188;2023-06-14T04:58:42;16.40;99.90
9939;DHT22;5008;50.656;7.188;2023-06-14T05:01:09;16.50;99.90
9939;DHT22;5008;50.656;7.188;2023-06-14T05:03:36;16.60;99.90
9939;DHT22;5008;50.656;7.188;2023-06-14T05:06:03;16.70;99.90
9939;DHT22;5008;50.656;7.188;2023-06-14T05:08:31;16.80;99.90
9939;DHT22;5008;50.656;7.188;2023-06-14T05:10:59;16.90;99.90
9939;DHT22;5008;50.656;7.188;2023-06-14T05:13:25;17.00;99.90
9939;DHT22;5008;50.656;7.188;2023-06-14T05:15:53;17.00;99.90
9939;DHT22;5008;50.656;7.188;2023-06-14T05:18:20;17.10;99.90
9939;DHT22;5008;50.656;7.188;2023-06-14T05:20:47;17.10;99.90
9939;DHT22;5008;50.656;7.188;2023-06-14T05:23:14;17.20;99.90
9939;DHT22;5008;50.656;7.188;2023-06-14T05:25:43;17.40;99.90
9939;DHT22;5008;50.656;7.188;2023-06-14T05:28:10;17.50;99.90
9939;DHT22;5008;50.656;7.188;2023-06-14T05:30:38;17.60;99.90
9939;DHT22;5008;50.656;7.188;2023-06-14T05:33:05;17.70;99.90
9939;DHT22;5008;50.656;7.188;2023-06-14T05:35:32;17.80;99.90
9939;DHT22;5008;50.656;7.188;2023-06-14T05:37:59;17.80;99.90
9939;DHT22;5008;50.656;7.188;2023-06-14T05:40:26;18.00;99.90
9939;DHT22;5008;50.656;7.188;2023-06-14T05:42:55;18.10;99.90
9939;DHT22;5008;50.656;7.188;2023-06-14T05:45:22;18.20;99.90
9939;DHT22;5008;50.656;7.188;2023-06-14T05:47:49;18.30;99.90
9939;DHT22;5008;50.656;7.188;2023-06-14T05:50:17;18.40;99.90
9939;DHT22;5008;50.656;7.188;2023-06-14T05:52:44;18.50;99.90
9939;DHT22;5008;50.656;7.188;2023-06-14T05:55:11;18.30;99.90
9939;DHT22;5008;50.656;7.188;2023-06-14T05:57:39;18.40;99.90
9939;DHT22;5008;50.656;7.188;2023-06-14T06:00:12;18.40;99.90
9939;DHT22;5008;50.656;7.188;2023-06-14T06:02:40;18.50;99.90
9939;DHT22;5008;50.656;7.188;2023-06-14T06:05:08;18.50;99.90
9939;DHT22;5008;50.656;7.188;2023-06-14T06:07:35;18.70;99.90
9939;DHT22;5008;50.656;7.188;2023-06-14T06:10:03;18.80;99.90
9939;DHT22;5008;50.656;7.188;2023-06-14T06:12:30;18.80;99.90
9939;DHT22;5008;50.656;7.188;2023-06-14T06:14:58;18.90;99.90
9939;DHT22;5008;50.656;7.188;2023-06-14T06:17:27;19.00;99.90
9939;DHT22;5008;50.656;7.188;2023-06-14T06:19:54;19.10;99.90
9939;DHT22;5008;50.656;7.188;2023-06-14T06:22:21;19.20;99.90
9939;DHT22;5008;50.656;7.188;2023-06-14T06:24:51;19.20;99.70
9939;DHT22;5008;50.656;7.188;2023-06-14T06:27:18;19.30;99.90
9939;DHT22;5008;50.656;7.188;2023-06-14T06:29:47;19.40;99.90
9939;DHT22;5008;50.656;7.188;2023-06-14T06:32:15;19.50;99.90
9939;DHT22;5008;50.656;7.188;2023-06-14T06:34:43;19.50;99.90
9939;DHT22;5008;50.656;7.188;2023-06-14T06:37:10;19.60;99.90
9939;DHT22;5008;50.656;7.188;2023-06-14T06:39:37;19.60;99.90
9939;DHT22;5008;50.656;7.188;2023-06-14T06:42:14;19.70;99.90
9939;DHT22;5008;50.656;7.188;2023-06-14T06:44:42;19.70;99.90
9939;DHT22;5008;50.656;7.188;2023-06-14T06:47:09;19.70;99.90
9939;DHT22;5008;50.656;7.188;2023-06-14T06:49:36;19.80;99.90
9939;DHT22;5008;50.656;7.188;2023-06-14T06:52:14;19.90;99.90
9939;DHT22;5008;50.656;7.188;2023-06-14T06:54:41;19.90;99.90
9939;DHT22;5008;50.656;7.188;2023-06-14T06:57:08;19.90;99.00
9939;DHT22;5008;50.656;7.188;2023-06-14T06:59:39;20.00;98.30
9939;DHT22;5008;50.656;7.188;2023-06-14T07:02:12;20.10;98.20
9939;DHT22;5008;50.656;7.188;2023-06-14T07:04:42;20.20;97.30
9939;DHT22;5008;50.656;7.188;2023-06-14T07:07:24;20.20;97.50
9939;DHT22;5008;50.656;7.188;2023-06-14T07:09:51;20.30;97.00
9939;DHT22;5008;50.656;7.188;2023-06-14T07:12:18;20.30;97.30
9939;DHT22;5008;50.656;7.188;2023-06-14T07:14:47;20.40;96.70
9939;DHT22;5008;50.656;7.188;2023-06-14T07:17:14;20.30;96.50
9939;DHT22;5008;50.656;7.188;2023-06-14T07:19:43;20.40;96.70
9939;DHT22;5008;50.656;7.188;2023-06-14T07:22:10;20.50;96.50
9939;DHT22;5008;50.656;7.188;2023-06-14T07:24:39;20.50;96.30
9939;DHT22;5008;50.656;7.188;2023-06-14T07:27:21;20.60;97.00
9939;DHT22;5008;50.656;7.188;2023-06-14T07:29:48;20.70;97.50
9939;DHT22;5008;50.656;7.188;2023-06-14T07:32:15;20.80;96.10
9939;DHT22;5008;50.656;7.188;2023-06-14T07:34:42;20.90;96.20
9939;DHT22;5008;50.656;7.188;2023-06-14T07:37:09;20.90;96.50
9939;DHT22;5008;50.656;7.188;2023-06-14T07:39:36;21.00;97.70
9939;DHT22;5008;50.656;7.188;2023-06-14T07:42:05;21.00;95.40
9939;DHT22;5008;50.656;7.188;2023-06-14T07:44:34;21.00;96.00
9939;DHT22;5008;50.656;7.188;2023-06-14T07:47:01;21.00;94.90
9939;DHT22;5008;50.656;7.188;2023-06-14T07:49:29;21.10;94.60
9939;DHT22;5008;50.656;7.188;2023-06-14T07:51:58;21.20;94.50
9939;DHT22;5008;50.656;7.188;2023-06-14T07:54:26;21.20;94.70
9939;DHT22;5008;50.656;7.188;2023-06-14T07:56:57;21.20;94.40
9939;DHT22;5008;50.656;7.188;2023-06-14T07:59:33;21.20;94.20
9939;DHT22;5008;50.656;7.188;2023-06-14T08:02:04;21.20;99.40
9939;DHT22;5008;50.656;7.188;2023-06-14T08:04:34;21.20;99.40
9939;DHT22;5008;50.656;7.188;2023-06-14T08:07:01;21.20;96.20
9939;DHT22;5008;50.656;7.188;2023-06-14T08:09:31;21.20;94.80
9939;DHT22;5008;50.656;7.188;2023-06-14T08:12:12;21.30;94.30
9939;DHT22;5008;50.656;7.188;2023-06-14T08:14:42;21.30;93.90
9939;DHT22;5008;50.656;7.188;2023-06-14T08:17:09;21.30;94.30
9939;DHT22;5008;50.656;7.188;2023-06-14T08:19:36;21.40;94.20
9939;DHT22;5008;50.656;7.188;2023-06-14T08:22:05;21.40;94.30
9939;DHT22;5008;50.656;7.188;2023-06-14T08:24:35;21.50;95.80
9939;DHT22;5008;50.656;7.188;2023-06-14T08:27:04;21.50;96.70
9939;DHT22;5008;50.656;7.188;2023-06-14T08:29:31;21.50;96.30
9939;DHT22;5008;50.656;7.188;2023-06-14T08:31:59;21.50;97.80
9939;DHT22;5008;50.656;7.188;2023-06-14T08:34:27;21.50;95.40
9939;DHT22;5008;50.656;7.188;2023-06-14T08:36:57;21.50;93.90
9939;DHT22;5008;50.656;7.188;2023-06-14T08:39:24;21.60;97.20
9939;DHT22;5008;50.656;7.188;2023-06-14T08:41:56;21.50;96.70
9939;DHT22;5008;50.656;7.188;2023-06-14T08:44:24;21.50;94.70
9939;DHT22;5008;50.656;7.188;2023-06-14T08:46:51;21.60;97.00
9939;DHT22;5008;50.656;7.188;2023-06-14T08:49:20;21.60;95.40
9939;DHT22;5008;50.656;7.188;2023-06-14T08:51:50;21.60;96.60
9939;DHT22;5008;50.656;7.188;2023-06-14T08:54:20;21.60;95.90
9939;DHT22;5008;50.656;7.188;2023-06-14T08:56:47;21.50;97.00
9939;DHT22;5008;50.656;7.188;2023-06-14T08:59:24;21.50;93.80
9939;DHT22;5008;50.656;7.188;2023-06-14T09:02:00;21.70;92.60
9939;DHT22;5008;50.656;7.188;2023-06-14T09:04:30;21.70;95.30
9939;DHT22;5008;50.656;7.188;2023-06-14T09:06:58;21.80;93.80
9939;DHT22;5008;50.656;7.188;2023-06-14T09:09:26;21.80;95.00
9939;DHT22;5008;50.656;7.188;2023-06-14T09:11:54;21.90;92.50
9939;DHT22;5008;50.656;7.188;2023-06-14T09:14:23;22.00;94.20
9939;DHT22;5008;50.656;7.188;2023-06-14T09:16:52;21.90;96.50
9939;DHT22;5008;50.656;7.188;2023-06-14T09:19:21;22.00;96.20
9939;DHT22;5008;50.656;7.188;2023-06-14T09:21:50;21.90;95.80
9939;DHT22;5008;50.656;7.188;2023-06-14T09:24:21;21.90;97.30
9939;DHT22;5008;50.656;7.188;2023-06-14T09:26:51;21.80;94.30
9939;DHT22;5008;50.656;7.188;2023-06-14T09:29:18;21.90;95.80
9939;DHT22;5008;50.656;7.188;2023-06-14T09:31:46;22.00;96.90
9939;DHT22;5008;50.656;7.188;2023-06-14T09:34:13;22.10;92.30
9939;DHT22;5008;50.656;7.188;2023-06-14T09:36:40;22.10;94.10
9939;DHT22;5008;50.656;7.188;2023-06-14T09:39:10;22.20;93.80
9939;DHT22;5008;50.656;7.188;2023-06-14T09:41:42;22.20;93.80
9939;DHT22;5008;50.656;7.188;2023-06-14T09:44:11;22.20;92.30
9939;DHT22;5008;50.656;7.188;2023-06-14T09:46:38;22.20;88.60
9939;DHT22;5008;50.656;7.188;2023-06-14T09:49:06;22.30;90.60
9939;DHT22;5008;50.656;7.188;2023-06-14T09:51:35;22.30;92.10
9939;DHT22;5008;50.656;7.188;2023-06-14T09:54:03;22.20;92.80
9939;DHT22;5008;50.656;7.188;2023-06-14T09:56:35;22.10;93.60
9939;DHT22;5008;50.656;7.188;2023-06-14T09:59:05;22.20;92.70
9939;DHT22;5008;50.656;7.188;2023-06-14T10:01:33;22.30;94.30
9939;DHT22;5008;50.656;7.188;2023-06-14T10:04:02;22.20;95.00
9939;DHT22;5008;50.656;7.188;2023-06-14T10:06:31;22.20;92.20
9939;DHT22;5008;50.656;7.188;2023-06-14T10:08:59;22.20;94.10
9939;DHT22;5008;50.656;7.188;2023-06-14T10:11:27;22.30;94.50
9939;DHT22;5008;50.656;7.188;2023-06-14T10:13:57;22.30;91.30
9939;DHT22;5008;50.656;7.188;2023-06-14T10:16:30;22.40;91.80
9939;DHT22;5008;50.656;7.188;2023-06-14T10:19:04;22.50;91.80
9939;DHT22;5008;50.656;7.188;2023-06-14T10:21:46;22.50;94.80
9939;DHT22;5008;50.656;7.188;2023-06-14T10:24:16;22.40;95.00
9939;DHT22;5008;50.656;7.188;2023-06-14T10:26:51;22.30;93.00
9939;DHT22;5008;50.656;7.188;2023-06-14T10:29:19;22.30;93.70
9939;DHT22;5008;50.656;7.188;2023-06-14T10:31:47;22.40;92.70
9939;DHT22;5008;50.656;7.188;2023-06-14T10:34:22;22.40;94.90
9939;DHT22;5008;50.656;7.188;2023-06-14T10:37:01;22.40;95.50
9939;DHT22;5008;50.656;7.188;2023-06-14T10:39:30;22.50;93.20
9939;DHT22;5008;50.656;7.188;2023-06-14T10:41:57;22.60;91.40
9939;DHT22;5008;50.656;7.188;2023-06-14T10:44:41;22.70;92.90
9939;DHT22;5008;50.656;7.188;2023-06-14T10:47:11;22.90;92.60
9939;DHT22;5008;50.656;7.188;2023-06-14T10:49:50;23.00;93.00
9939;DHT22;5008;50.656;7.188;2023-06-14T10:52:24;23.00;94.30
9939;DHT22;5008;50.656;7.188;2023-06-14T10:55:05;22.90;95.10
9939;DHT22;5008;50.656;7.188;2023-06-14T10:57:35;23.00;93.30
9939;DHT22;5008;50.656;7.188;2023-06-14T11:00:05;23.00;91.90
9939;DHT22;5008;50.656;7.188;2023-06-14T11:02:52;23.10;90.60
9939;DHT22;5008;50.656;7.188;2023-06-14T11:05:25;23.30;92.10
9939;DHT22;5008;50.656;7.188;2023-06-14T11:08:04;23.40;90.80
9939;DHT22;5008;50.656;7.188;2023-06-14T11:10:41;23.70;91.70
9939;DHT22;5008;50.656;7.188;2023-06-14T11:13:08;23.70;91.00
9939;DHT22;5008;50.656;7.188;2023-06-14T11:15:37;23.70;91.90
9939;DHT22;5008;50.656;7.188;2023-06-14T11:18:05;23.80;93.00
9939;DHT22;5008;50.656;7.188;2023-06-14T11:20:34;23.80;92.90
9939;DHT22;5008;50.656;7.188;2023-06-14T11:23:02;24.00;91.90
9939;DHT22;5008;50.656;7.188;2023-06-14T11:25:29;24.20;87.10
9939;DHT22;5008;50.656;7.188;2023-06-14T11:27:57;24.50;86.80
9939;DHT22;5008;50.656;7.188;2023-06-14T11:30:24;24.80;87.10
9939;DHT22;5008;50.656;7.188;2023-06-14T11:32:54;24.90;91.10
9939;DHT22;5008;50.656;7.188;2023-06-14T11:35:22;25.00;91.20
9939;DHT22;5008;50.656;7.188;2023-06-14T11:37:52;25.20;90.00
9939;DHT22;5008;50.656;7.188;2023-06-14T11:40:19;25.20;92.20
9939;DHT22;5008;50.656;7.188;2023-06-14T11:42:46;25.30;91.60
9939;DHT22;5008;50.656;7.188;2023-06-14T11:45:13;25.50;89.90
9939;DHT22;5008;50.656;7.188;2023-06-14T11:47:40;25.80;83.30
9939;DHT22;5008;50.656;7.188;2023-06-14T11:50:09;26.00;82.10
9939;DHT22;5008;50.656;7.188;2023-06-14T11:52:37;26.00;86.20
9939;DHT22;5008;50.656;7.188;2023-06-14T11:55:04;25.90;89.20
9939;DHT22;5008;50.656;7.188;2023-06-14T11:57:34;25.90;91.70
9939;DHT22;5008;50.656;7.188;2023-06-14T12:00:03;25.90;92.80
9939;DHT22;5008;50.656;7.188;2023-06-14T12:02:33;25.90;90.70
9939;DHT22;5008;50.656;7.188;2023-06-14T12:05:08;25.90;90.00
9939;DHT22;5008;50.656;7.188;2023-06-14T12:07:36;25.60;91.80
9939;DHT22;5008;50.656;7.188;2023-06-14T12:10:07;25.70;89.10
9939;DHT22;5008;50.656;7.188;2023-06-14T12:12:37;25.60;91.30
9939;DHT22;5008;50.656;7.188;2023-06-14T12:15:05;25.40;90.20
9939;DHT22;5008;50.656;7.188;2023-06-14T12:17:33;25.30;91.70
9939;DHT22;5008;50.656;7.188;2023-06-14T12:20:05;25.30;93.20
9939;DHT22;5008;50.656;7.188;2023-06-14T12:22:37;25.50;88.70
9939;DHT22;5008;50.656;7.188;2023-06-14T12:25:04;25.50;91.10
9939;DHT22;5008;50.656;7.188;2023-06-14T12:27:34;25.30;93.20
9939;DHT22;5008;50.656;7.188;2023-06-14T12:30:02;25.20;89.50
9939;DHT22;5008;50.656;7.188;2023-06-14T12:32:30;25.20;88.80
9939;DHT22;5008;50.656;7.188;2023-06-14T12:34:57;25.20;91.90
9939;DHT22;5008;50.656;7.188;2023-06-14T12:37:24;25.10;92.10
9939;DHT22;5008;50.656;7.188;2023-06-14T12:39:52;25.20;92.70
9939;DHT22;5008;50.656;7.188;2023-06-14T12:42:19;25.10;90.70
9939;DHT22;5008;50.656;7.188;2023-06-14T12:44:45;25.10;92.40
9939;DHT22;5008;50.656;7.188;2023-06-14T12:47:12;25.20;93.30
9939;DHT22;5008;50.656;7.188;2023-06-14T12:49:39;25.60;92.40
9939;DHT22;5008;50.656;7.188;2023-06-14T12:52:08;26.00;89.60
9939;DHT22;5008;50.656;7.188;2023-06-14T12:54:35;26.30;87.30
9939;DHT22;5008;50.656;7.188;2023-06-14T12:57:04;26.50;90.00
9939;DHT22;5008;50.656;7.188;2023-06-14T12:59:30;26.50;89.90
9939;DHT22;5008;50.656;7.188;2023-06-14T13:02:13;26.70;89.10
9939;DHT22;5008;50.656;7.188;2023-06-14T13:04:41;26.90;88.50
9939;DHT22;5008;50.656;7.188;2023-06-14T13:07:08;26.80;88.90
9939;DHT22;5008;50.656;7.188;2023-06-14T13:09:36;26.30;92.30
9939;DHT22;5008;50.656;7.188;2023-06-14T13:12:04;26.00;91.90
9939;DHT22;5008;50.656;7.188;2023-06-14T13:14:32;26.00;86.30
9939;DHT22;5008;50.656;7.188;2023-06-14T13:16:58;26.10;91.20
9939;DHT22;5008;50.656;7.188;2023-06-14T13:19:25;26.20;90.40
9939;DHT22;5008;50.656;7.188;2023-06-14T13:21:52;26.40;88.60
9939;DHT22;5008;50.656;7.188;2023-06-14T13:24:21;27.00;90.50
9939;DHT22;5008;50.656;7.188;2023-06-14T13:26:48;27.70;87.70
9939;DHT22;5008;50.656;7.188;2023-06-14T13:29:16;28.40;89.60
9939;DHT22;5008;50.656;7.188;2023-06-14T13:31:43;28.90;90.20
9939;DHT22;5008;50.656;7.188;2023-06-14T13:34:10;29.90;80.20
9939;DHT22;5008;50.656;7.188;2023-06-14T13:36:37;30.50;73.40
9939;DHT22;5008;50.656;7.188;2023-06-14T13:39:04;30.50;79.90
9939;DHT22;5008;50.656;7.188;2023-06-14T13:41:38;30.80;77.10
9939;DHT22;5008;50.656;7.188;2023-06-14T13:44:05;30.60;78.40
9939;DHT22;5008;50.656;7.188;2023-06-14T13:46:33;30.10;80.90
9939;DHT22;5008;50.656;7.188;2023-06-14T13:49:00;28.90;78.00
9939;DHT22;5008;50.656;7.188;2023-06-14T13:51:27;28.20;85.80
9939;DHT22;5008;50.656;7.188;2023-06-14T13:54:12;27.20;79.10
9939;DHT22;5008;50.656;7.188;2023-06-14T13:56:40;26.70;86.40
9939;DHT22;5008;50.656;7.188;2023-06-14T13:59:07;26.50;90.00
9939;DHT22;5008;50.656;7.188;2023-06-14T14:01:36;26.10;85.80
9939;DHT22;5008;50.656;7.188;2023-06-14T14:04:03;25.90;85.30
9939;DHT22;5008;50.656;7.188;2023-06-14T14:06:41;25.70;83.60
9939;DHT22;5008;50.656;7.188;2023-06-14T14:09:08;25.50;85.00
9939;DHT22;5008;50.656;7.188;2023-06-14T14:11:34;25.40;88.60
9939;DHT22;5008;50.656;7.188;2023-06-14T14:14:01;25.20;86.70
9939;DHT22;5008;50.656;7.188;2023-06-14T14:16:30;25.00;87.20
9939;DHT22;5008;50.656;7.188;2023-06-14T14:18:58;24.90;87.70
9939;DHT22;5008;50.656;7.188;2023-06-14T14:21:25;24.80;89.90
9939;DHT22;5008;50.656;7.188;2023-06-14T14:23:52;24.80;89.60
9939;DHT22;5008;50.656;7.188;2023-06-14T14:26:19;24.70;83.60
9939;DHT22;5008;50.656;7.188;2023-06-14T14:28:46;24.80;85.30
9939;DHT22;5008;50.656;7.188;2023-06-14T14:31:12;24.80;86.70
9939;DHT22;5008;50.656;7.188;2023-06-14T14:33:39;24.80;83.40
9939;DHT22;5008;50.656;7.188;2023-06-14T14:36:07;24.70;90.30
9939;DHT22;5008;50.656;7.188;2023-06-14T14:38:34;24.70;88.70
9939;DHT22;5008;50.656;7.188;2023-06-14T14:41:01;24.50;89.60
9939;DHT22;5008;50.656;7.188;2023-06-14T14:43:28;24.50;84.30
9939;DHT22;5008;50.656;7.188;2023-06-14T14:45:56;24.40;87.70
9939;DHT22;5008;50.656;7.188;2023-06-14T14:48:23;24.50;83.80
9939;DHT22;5008;50.656;7.188;2023-06-14T14:50:49;24.60;83.80
9939;DHT22;5008;50.656;7.188;2023-06-14T14:53:17;24.60;84.50
9939;DHT22;5008;50.656;7.188;2023-06-14T14:56:02;24.60;87.40
9939;DHT22;5008;50.656;7.188;2023-06-14T14:58:29;24.60;87.30
9939;DHT22;5008;50.656;7.188;2023-06-14T15:00:55;24.70;89.40
9939;DHT22;5008;50.656;7.188;2023-06-14T15:03:22;24.70;85.00
9939;DHT22;5008;50.656;7.188;2023-06-14T15:05:49;24.60;85.50
9939;DHT22;5008;50.656;7.188;2023-06-14T15:08:17;24.40;84.20
9939;DHT22;5008;50.656;7.188;2023-06-14T15:10:44;24.40;83.60
9939;DHT22;5008;50.656;7.188;2023-06-14T15:13:12;24.50;86.10
9939;DHT22;5008;50.656;7.188;2023-06-14T15:15:39;24.60;85.90
9939;DHT22;5008;50.656;7.188;2023-06-14T15:18:06;24.60;90.60
9939;DHT22;5008;50.656;7.188;2023-06-14T15:20:33;24.40;91.10
9939;DHT22;5008;50.656;7.188;2023-06-14T15:22:59;24.20;91.80
9939;DHT22;5008;50.656;7.188;2023-06-14T15:25:28;24.20;87.60
9939;DHT22;5008;50.656;7.188;2023-06-14T15:27:55;24.10;89.10
9939;DHT22;5008;50.656;7.188;2023-06-14T15:30:22;24.10;89.90
9939;DHT22;5008;50.656;7.188;2023-06-14T15:33:02;24.10;88.70
9939;DHT22;5008;50.656;7.188;2023-06-14T15:35:29;24.20;84.60
9939;DHT22;5008;50.656;7.188;2023-06-14T15:37:55;24.30;84.60
9939;DHT22;5008;50.656;7.188;2023-06-14T15:40:22;24.50;85.50
9939;DHT22;5008;50.656;7.188;2023-06-14T15:42:51;24.60;90.30
9939;DHT22;5008;50.656;7.188;2023-06-14T15:45:17;24.90;90.90
9939;DHT22;5008;50.656;7.188;2023-06-14T15:47:44;25.00;91.30
9939;DHT22;5008;50.656;7.188;2023-06-14T15:50:11;25.00;83.40
9939;DHT22;5008;50.656;7.188;2023-06-14T15:52:38;25.00;81.80
9939;DHT22;5008;50.656;7.188;2023-06-14T15:55:05;24.80;82.60
9939;DHT22;5008;50.656;7.188;2023-06-14T15:57:32;24.80;85.00
9939;DHT22;5008;50.656;7.188;2023-06-14T16:00:01;24.90;86.40
9939;DHT22;5008;50.656;7.188;2023-06-14T16:02:29;25.20;90.30
9939;DHT22;5008;50.656;7.188;2023-06-14T16:04:55;25.20;88.10
9939;DHT22;5008;50.656;7.188;2023-06-14T16:07:23;25.20;91.10
9939;DHT22;5008;50.656;7.188;2023-06-14T16:09:50;24.90;90.40
9939;DHT22;5008;50.656;7.188;2023-06-14T16:12:16;24.50;92.80
9939;DHT22;5008;50.656;7.188;2023-06-14T16:14:46;24.20;90.90
9939;DHT22;5008;50.656;7.188;2023-06-14T16:17:14;24.20;90.50
9939;DHT22;5008;50.656;7.188;2023-06-14T16:19:41;23.90;91.70
9939;DHT22;5008;50.656;7.188;2023-06-14T16:22:08;23.70;88.80
9939;DHT22;5008;50.656;7.188;2023-06-14T16:24:35;23.60;92.00
9939;DHT22;5008;50.656;7.188;2023-06-14T16:27:02;23.50;93.30
9939;DHT22;5008;50.656;7.188;2023-06-14T16:29:30;23.60;90.30
9939;DHT22;5008;50.656;7.188;2023-06-14T16:31:57;23.90;90.90
9939;DHT22;5008;50.656;7.188;2023-06-14T16:34:25;24.00;86.50
9939;DHT22;5008;50.656;7.188;2023-06-14T16:37:06;24.20;90.00
9939;DHT22;5008;50.656;7.188;2023-06-14T16:39:33;24.20;92.70
9939;DHT22;5008;50.656;7.188;2023-06-14T16:42:00;24.30;92.20
9939;DHT22;5008;50.656;7.188;2023-06-14T16:44:27;24.60;91.40
9939;DHT22;5008;50.656;7.188;2023-06-14T16:46:53;24.90;90.00
9939;DHT22;5008;50.656;7.188;2023-06-14T16:49:21;24.90;90.30
9939;DHT22;5008;50.656;7.188;2023-06-14T16:51:49;24.70;92.60
9939;DHT22;5008;50.656;7.188;2023-06-14T16:54:16;24.30;91.60
9939;DHT22;5008;50.656;7.188;2023-06-14T16:56:43;24.20;90.90
9939;DHT22;5008;50.656;7.188;2023-06-14T16:59:10;24.10;90.00
9939;DHT22;5008;50.656;7.188;2023-06-14T17:01:37;24.00;89.20
9939;DHT22;5008;50.656;7.188;2023-06-14T17:04:04;23.80;92.60
9939;DHT22;5008;50.656;7.188;2023-06-14T17:06:31;23.60;92.90
9939;DHT22;5008;50.656;7.188;2023-06-14T17:08:59;23.50;88.20
9939;DHT22;5008;50.656;7.188;2023-06-14T17:11:26;23.60;92.70
9939;DHT22;5008;50.656;7.188;2023-06-14T17:13:52;23.60;92.10
9939;DHT22;5008;50.656;7.188;2023-06-14T17:16:21;23.60;91.50
9939;DHT22;5008;50.656;7.188;2023-06-14T17:18:48;23.40;93.20
9939;DHT22;5008;50.656;7.188;2023-06-14T17:21:23;23.40;93.00
9939;DHT22;5008;50.656;7.188;2023-06-14T17:23:50;23.40;91.80
9939;DHT22;5008;50.656;7.188;2023-06-14T17:26:18;23.30;93.50
9939;DHT22;5008;50.656;7.188;2023-06-14T17:28:45;23.20;94.00
9939;DHT22;5008;50.656;7.188;2023-06-14T17:31:11;23.10;94.00
9939;DHT22;5008;50.656;7.188;2023-06-14T17:33:39;23.10;94.90
9939;DHT22;5008;50.656;7.188;2023-06-14T17:36:06;23.10;95.00
9939;DHT22;5008;50.656;7.188;2023-06-14T17:38:34;23.00;95.70
9939;DHT22;5008;50.656;7.188;2023-06-14T17:41:02;23.00;95.00
9939;DHT22;5008;50.656;7.188;2023-06-14T17:43:35;23.10;91.90
9939;DHT22;5008;50.656;7.188;2023-06-14T17:46:02;23.00;95.20
9939;DHT22;5008;50.656;7.188;2023-06-14T17:48:29;23.00;93.70
9939;DHT22;5008;50.656;7.188;2023-06-14T17:51:05;22.90;94.80
9939;DHT22;5008;50.656;7.188;2023-06-14T17:53:32;22.90;95.00
9939;DHT22;5008;50.656;7.188;2023-06-14T17:56:01;22.80;95.40
9939;DHT22;5008;50.656;7.188;2023-06-14T17:58:28;22.80;94.30
9939;DHT22;5008;50.656;7.188;2023-06-14T18:00:56;22.60;95.00
9939;DHT22;5008;50.656;7.188;2023-06-14T18:03:24;22.50;94.80
9939;DHT22;5008;50.656;7.188;2023-06-14T18:05:51;22.50;95.30
9939;DHT22;5008;50.656;7.188;2023-06-14T18:08:18;22.40;95.60
9939;DHT22;5008;50.656;7.188;2023-06-14T18:10:45;22.30;95.60
9939;DHT22;5008;50.656;7.188;2023-06-14T18:13:12;22.30;95.50
9939;DHT22;5008;50.656;7.188;2023-06-14T18:15:38;22.40;95.60
9939;DHT22;5008;50.656;7.188;2023-06-14T18:18:06;22.40;94.10
9939;DHT22;5008;50.656;7.188;2023-06-14T18:20:33;22.40;95.70
9939;DHT22;5008;50.656;7.188;2023-06-14T18:23:00;22.70;94.90
9939;DHT22;5008;50.656;7.188;2023-06-14T18:25:27;22.90;95.50
9939;DHT22;5008;50.656;7.188;2023-06-14T18:27:54;23.10;94.10
9939;DHT22;5008;50.656;7.188;2023-06-14T18:30:20;23.20;94.60
9939;DHT22;5008;50.656;7.188;2023-06-14T18:32:47;23.10;95.00
9939;DHT22;5008;50.656;7.188;2023-06-14T18:35:19;23.20;93.90
9939;DHT22;5008;50.656;7.188;2023-06-14T18:37:46;23.20;94.40
9939;DHT22;5008;50.656;7.188;2023-06-14T18:40:13;22.90;94.90
9939;DHT22;5008;50.656;7.188;2023-06-14T18:42:40;22.80;95.30
9939;DHT22;5008;50.656;7.188;2023-06-14T18:45:08;22.70;95.00
9939;DHT22;5008;50.656;7.188;2023-06-14T18:47:35;22.60;94.90
9939;DHT22;5008;50.656;7.188;2023-06-14T18:50:02;22.60;94.00
9939;DHT22;5008;50.656;7.188;2023-06-14T18:52:30;22.50;95.20
9939;DHT22;5008;50.656;7.188;2023-06-14T18:54:57;22.40;95.20
9939;DHT22;5008;50.656;7.188;2023-06-14T18:57:24;22.40;94.80
9939;DHT22;5008;50.656;7.188;2023-06-14T18:59:50;22.30;95.40
9939;DHT22;5008;50.656;7.188;2023-06-14T19:02:21;22.30;95.80
9939;DHT22;5008;50.656;7.188;2023-06-14T19:04:48;22.10;95.90
9939;DHT22;5008;50.656;7.188;2023-06-14T19:07:15;22.00;96.00
9939;DHT22;5008;50.656;7.188;2023-06-14T19:09:43;22.00;96.30
9939;DHT22;5008;50.656;7.188;2023-06-14T19:12:10;21.90;96.70
9939;DHT22;5008;50.656;7.188;2023-06-14T19:14:37;21.80;93.60
9939;DHT22;5008;50.656;7.188;2023-06-14T19:17:11;21.90;92.50
9939;DHT22;5008;50.656;7.188;2023-06-14T19:19:37;21.90;92.70
9939;DHT22;5008;50.656;7.188;2023-06-14T19:22:05;21.90;92.60
9939;DHT22;5008;50.656;7.188;2023-06-14T19:24:31;21.90;92.70
9939;DHT22;5008;50.656;7.188;2023-06-14T19:27:00;21.80;92.90
9939;DHT22;5008;50.656;7.188;2023-06-14T19:29:26;21.80;92.90
9939;DHT22;5008;50.656;7.188;2023-06-14T19:31:55;21.70;92.60
9939;DHT22;5008;50.656;7.188;2023-06-14T19:34:22;21.60;92.60
9939;DHT22;5008;50.656;7.188;2023-06-14T19:36:49;21.60;93.00
9939;DHT22;5008;50.656;7.188;2023-06-14T19:39:16;21.50;92.70
9939;DHT22;5008;50.656;7.188;2023-06-14T19:41:43;21.40;93.10
9939;DHT22;5008;50.656;7.188;2023-06-14T19:44:11;21.30;93.20
9939;DHT22;5008;50.656;7.188;2023-06-14T19:46:38;21.20;93.40
9939;DHT22;5008;50.656;7.188;2023-06-14T19:49:05;21.00;93.40
9939;DHT22;5008;50.656;7.188;2023-06-14T19:51:31;20.90;93.30
9939;DHT22;5008;50.656;7.188;2023-06-14T19:53:58;20.90;93.10
9939;DHT22;5008;50.656;7.188;2023-06-14T19:56:25;20.80;93.20
9939;DHT22;5008;50.656;7.188;2023-06-14T19:58:52;20.70;93.30
9939;DHT22;5008;50.656;7.188;2023-06-14T20:01:20;20.60;93.40
9939;DHT22;5008;50.656;7.188;2023-06-14T20:03:48;20.50;93.40
9939;DHT22;5008;50.656;7.188;2023-06-14T20:06:15;20.50;93.50
9939;DHT22;5008;50.656;7.188;2023-06-14T20:08:42;20.50;94.10
9939;DHT22;5008;50.656;7.188;2023-06-14T20:11:08;20.30;94.00